sensor_id;sensor_type;location;lat;lon;timestamp;P1;durP1;ratioP1;P2;durP2;ratioP2
62554;SDS011;48610;52.144;8.624;2023-08-20T18:25:32;12.70;;;5.13;;
62554;SDS011;48610;52.144;8.624;2023-08-20T18:28:34;12.27;;;5.18;;
62554;SDS011;48610;52.144;8.624;2023-08-20T18:31:35;10.52;;;4.97;;
62554;SDS011;48610;52.144;8.624;2023-08-20T18:34:35;8.77;;;4.50;;
62554;SDS011;48610;52.144;8.624;2023-08-20T18:37:36;10.02;;;4.68;;
62554;SDS011;48610;52.144;8.624;2023-08-20T18:40:37;23.45;;;4.80;;
62554;SDS011;48610;52.144;8.624;2023-08-20T18:43:37;10.70;;;4.50;;
62554;SDS011;48610;52.144;8.624;2023-08-20T18:46:38;10.57;;;4.13;;
62554;SDS011;48610;52.144;8.624;2023-08-20T18:49:39;10.45;;;4.20;;
62554;SDS011;48610;52.144;8.624;2023-08-20T18:52:40;10.25;;;3.97;;
62554;SDS011;48610;52.144;8.624;2023-08-20T18:55:40;12.48;;;4.50;;
62554;SDS011;48610;52.144;8.624;2023-08-20T18:58:41;9.48;;;4.10;;
62554;SDS011;48610;52.144;8.624;2023-08-20T19:01:42;11.52;;;4.10;;
62554;SDS011;48610;52.144;8.624;2023-08-20T19:04:42;10.40;;;4.30;;
62554;SDS011;48610;52.144;8.624;2023-08-20T19:07:43;15.00;;;4.40;;
62554;SDS011;48610;52.144;8.624;2023-08-20T19:10:48;12.75;;;3.50;;
62554;SDS011;48610;52.144;8.624;2023-08-20T19:13:49;11.30;;;4.13;;
62554;SDS011;48610;52.144;8.624;2023-08-20T19:16:50;10.77;;;3.70;;
62554;SDS011;48610;52.144;8.624;2023-08-20T19:19:51;15.15;;;4.32;;
62554;SDS011;48610;52.144;8.624;2023-08-20T19:22:52;10.23;;;3.40;;
62554;SDS011;48610;52.144;8.624;2023-08-20T19:25:53;8.10;;;3.70;;
62554;SDS011;48610;52.144;8.624;2023-08-20T19:28:54;10.32;;;3.80;;
62554;SDS011;48610;52.144;8.624;2023-08-20T19:31:54;6.15;;;3.17;;
62554;SDS011;48610;52.144;8.624;2023-08-20T19:34:55;10.60;;;3.50;;
62554;SDS011;48610;52.144;8.624;2023-08-20T19:37:55;9.35;;;3.60;;
62554;SDS011;48610;52.144;8.624;2023-08-20T19:40:57;9.57;;;3.00;;
62554;SDS011;48610;52.144;8.624;2023-08-20T19:43:57;9.00;;;3.22;;
62554;SDS011;48610;52.144;8.624;2023-08-20T19:46:58;7.85;;;3.30;;
62554;SDS011;48610;52.144;8.624;2023-08-20T19:49:59;9.15;;;3.10;;
62554;SDS011;48610;52.144;8.624;2023-08-20T19:52:59;9.90;;;3.33;;
62554;SDS011;48610;52.144;8.624;2023-08-20T19:56:00;7.50;;;3.72;;
62554;SDS011;48610;52.144;8.624;2023-08-20T19:59:01;6.32;;;3.15;;
62554;SDS011;48610;52.144;8.624;2023-08-20T20:02:02;8.18;;;3.40;;
62554;SDS011;48610;52.144;8.624;2023-08-20T20:05:04;8.50;;;3.00;;
62554;SDS011;48610;52.144;8.624;2023-08-20T20:08:08;8.77;;;3.22;;
62554;SDS011;48610;52.144;8.624;2023-08-20T20:11:09;11.95;;;3.00;;
62554;SDS011;48610;52.144;8.624;2023-08-20T20:14:09;7.40;;;3.33;;
62554;SDS011;48610;52.144;8.624;2023-08-20T20:17:10;7.63;;;2.85;;
62554;SDS011;48610;52.144;8.624;2023-08-20T20:20:10;8.95;;;2.92;;
62554;SDS011;48610;52.144;8.624;2023-08-20T20:23:11;10.25;;;3.20;;
62554;SDS011;48610;52.144;8.624;2023-08-20T20:26:12;5.85;;;2.85;;
62554;SDS011;48610;52.144;8.624;2023-08-20T20:29:12;16.83;;;2.92;;
62554;SDS011;48610;52.144;8.624;2023-08-20T20:32:13;9.00;;;3.10;;
62554;SDS011;48610;52.144;8.624;2023-08-20T20:35:14;11.75;;;2.97;;
62554;SDS011;48610;52.144;8.624;2023-08-20T20:38:15;5.97;;;2.72;;
62554;SDS011;48610;52.144;8.624;2023-08-20T20:41:16;10.23;;;3.10;;
62554;SDS011;48610;52.144;8.624;2023-08-20T20:44:16;7.40;;;2.88;;
62554;SDS011;48610;52.144;8.624;2023-08-20T20:47:17;6.38;;;2.95;;
62554;SDS011;48610;52.144;8.624;2023-08-20T20:50:18;6.45;;;2.90;;
62554;SDS011;48610;52.144;8.624;2023-08-20T20:53:18;8.23;;;2.90;;
62554;SDS011;48610;52.144;8.624;2023-08-20T20:56:19;4.47;;;3.00;;
62554;SDS011;48610;52.144;8.624;2023-08-20T20:59:19;6.55;;;2.70;;
62554;SDS011;48610;52.144;8.624;2023-08-20T21:02:20;11.77;;;3.30;;
62554;SDS011;48610;52.144;8.624;2023-08-20T21:05:21;10.68;;;3.00;;
62554;SDS011;48610;52.144;8.624;2023-08-20T21:08:22;9.85;;;2.85;;
62554;SDS011;48610;52.144;8.624;2023-08-20T21:11:22;7.63;;;2.67;;
62554;SDS011;48610;52.144;8.624;2023-08-20T21:14:23;8.95;;;3.30;;
62554;SDS011;48610;52.144;8.624;2023-08-20T21:17:24;6.25;;;2.70;;
62554;SDS011;48610;52.144;8.624;2023-08-20T21:20:25;10.18;;;3.22;;
62554;SDS011;48610;52.144;8.624;2023-08-20T21:23:25;8.57;;;3.33;;
62554;SDS011;48610;52.144;8.624;2023-08-20T21:26:26;8.18;;;3.45;;
62554;SDS011;48610;52.144;8.624;2023-08-20T21:29:27;15.73;;;3.08;;
62554;SDS011;48610;52.144;8.624;2023-08-20T21:32:27;9.32;;;3.10;;
62554;SDS011;48610;52.144;8.624;2023-08-20T21:35:28;6.93;;;2.83;;
62554;SDS011;48610;52.144;8.624;2023-08-20T21:38:28;8.65;;;3.38;;
62554;SDS011;48610;52.144;8.624;2023-08-20T21:41:29;5.00;;;2.90;;
62554;SDS011;48610;52.144;8.624;2023-08-20T21:44:29;5.72;;;2.80;;
62554;SDS011;48610;52.144;8.624;2023-08-20T21:47:30;10.70;;;3.15;;
62554;SDS011;48610;52.144;8.624;2023-08-20T21:50:34;13.40;;;3.13;;
62554;SDS011;48610;52.144;8.624;2023-08-20T21:53:34;7.70;;;3.42;;
62554;SDS011;48610;52.144;8.624;2023-08-20T21:56:35;8.32;;;3.30;;
62554;SDS011;48610;52.144;8.624;2023-08-20T21:59:36;7.47;;;2.90;;
62554;SDS011;48610;52.144;8.624;2023-08-20T22:02:37;5.97;;;3.13;;
62554;SDS011;48610;52.144;8.624;2023-08-20T22:05:37;5.50;;;2.63;;
62554;SDS011;48610;52.144;8.624;2023-08-20T22:08:38;6.20;;;3.03;;
62554;SDS011;48610;52.144;8.624;2023-08-20T22:11:39;4.68;;;2.45;;
62554;SDS011;48610;52.144;8.624;2023-08-20T22:14:40;3.60;;;2.55;;
62554;SDS011;48610;52.144;8.624;2023-08-20T22:17:43;15.70;;;2.83;;
62554;SDS011;48610;52.144;8.624;2023-08-20T22:20:44;8.10;;;3.20;;
62554;SDS011;48610;52.144;8.624;2023-08-20T22:23:46;8.43;;;3.08;;
62554;SDS011;48610;52.144;8.624;2023-08-20T22:26:47;7.18;;;2.92;;
62554;SDS011;48610;52.144;8.624;2023-08-20T22:29:47;10.73;;;3.60;;
62554;SDS011;48610;52.144;8.624;2023-08-20T22:32:48;7.32;;;3.03;;
62554;SDS011;48610;52.144;8.624;2023-08-20T22:35:49;6.30;;;3.10;;
62554;SDS011;48610;52.144;8.624;2023-08-20T22:38:50;5.90;;;2.85;;
62554;SDS011;48610;52.144;8.624;2023-08-20T22:41:51;8.63;;;3.05;;
62554;SDS011;48610;52.144;8.624;2023-08-20T22:44:51;9.55;;;3.17;;
62554;SDS011;48610;52.144;8.624;2023-08-20T22:47:52;5.95;;;2.90;;
62554;SDS011;48610;52.144;8.624;2023-08-20T22:50:53;6.40;;;2.58;;
62554;SDS011;48610;52.144;8.624;2023-08-20T22:53:53;9.68;;;3.00;;
62554;SDS011;48610;52.144;8.624;2023-08-20T22:56:54;6.85;;;2.50;;
62554;SDS011;48610;52.144;8.624;2023-08-20T22:59:55;4.85;;;2.78;;
62554;SDS011;48610;52.144;8.624;2023-08-20T23:02:56;5.28;;;3.00;;
62554;SDS011;48610;52.144;8.624;2023-08-20T23:05:56;6.97;;;3.10;;
62554;SDS011;48610;52.144;8.624;2023-08-20T23:08:57;20.63;;;4.25;;
62554;SDS011;48610;52.144;8.624;2023-08-20T23:11:58;10.68;;;3.20;;
62554;SDS011;48610;52.144;8.624;2023-08-20T23:14:58;4.70;;;3.10;;
62554;SDS011;48610;52.144;8.624;2023-08-20T23:17:59;7.65;;;2.60;;
62554;SDS011;48610;52.144;8.624;2023-08-20T23:21:00;3.88;;;2.70;;
62554;SDS011;48610;52.144;8.624;2023-08-20T23:24:01;7.38;;;3.05;;
62554;SDS011;48610;52.144;8.624;2023-08-20T23:27:02;9.23;;;3.25;;
62554;SDS011;48610;52.144;8.624;2023-08-20T23:30:03;11.57;;;3.17;;
62554;SDS011;48610;52.144;8.624;2023-08-20T23:33:05;8.70;;;3.13;;
62554;SDS011;48610;52.144;8.624;2023-08-20T23:36:06;3.25;;;2.80;;
62554;SDS011;48610;52.144;8.624;2023-08-20T23:39:07;8.55;;;3.30;;
62554;SDS011;48610;52.144;8.624;2023-08-20T23:42:07;17.00;;;2.78;;
62554;SDS011;48610;52.144;8.624;2023-08-20T23:45:08;10.13;;;2.47;;
62554;SDS011;48610;52.144;8.624;2023-08-20T23:48:09;6.43;;;2.88;;
62554;SDS011;48610;52.144;8.624;2023-08-20T23:51:09;6.75;;;2.95;;
62554;SDS011;48610;52.144;8.624;2023-08-20T23:54:10;6.43;;;2.70;;
62554;SDS011;48610;52.144;8.624;2023-08-20T23:57:10;4.72;;;2.55;;
